Ekalaka, MT (59324)

1:42 AM MDT on July 28, 2016 (GMT -0600)
MesoWest | | Change Station

Elev 3502 ft 45.88 °N, 104.54 °W | Updated 47 minutes ago

Overcast
Overcast
60 °F
Feels Like 60 °F
N
7
Wind Variable Wind from SE
Gusts 0.0 mph

Today
High -- | Low -- °F
--% Chance of Precip.
Yesterday
High -- | Low -- °F
Precip. -- in
Pressure 30.17 in
Visibility 10.0 miles
Clouds Few 1300 ft
Few 4800 ft
Overcast 9000 ft
Dew Point 55 °F
Humidity 83%
Rainfall in
Snow Depth Not available.
5:36 AM 8:31 PM
Waning Crescent, 35% visible
SPECI KBHK 280728Z AUTO 33007KT 10SM -RA FEW013 FEW048 OVC090 17/16 A3017 RMK AO2 LTG DSNT N AND NW RAB08 P0002 T01720156
Pressure 30.17 in
Visibility 10.0 miles
Clouds Few 1300 ft
Few 4800 ft
Overcast 9000 ft
Dew Point 55 °F
Humidity 83%
Rainfall in
Snow Depth Not available.
5:36 AM 8:31 PM
Waning Crescent, 35% visible
SPECI KBHK 280728Z AUTO 33007KT 10SM -RA FEW013 FEW048 OVC090 17/16 A3017 RMK AO2 LTG DSNT N AND NW RAB08 P0002 T01720156

10-Day Weather Forecast

Almanac

Astronomy

Jul. 28, 2016 Rise Set
Actual Time
Civil Twilight
Nautical Twilight
Astronomical Twilight
Moon
Length of Visible Light
Length of Day
Tomorrow will be .
, % of the Moon is Illuminated

Today's Extremes

State Highs State Lows

Community

WunderPhotos

Upload Photos

1,928,070 photos uploaded!

WunderBlog® & News

Nearby

Air Quality

  Air Quality AQ Index Pollutant
Not available.

Snow Depth

Station Depth Elevation

Earthquake Activity

City Distance Mag. Time & Date
Minimum magnitude displayed is 2.5.

Coastal Water Temperatures

Place Temperature

Stations

Nearby Weather Stations

Station Location Temp. Windchill Dew Point Humidity Wind Precip. Elev Updated Type
                   

Watches & Warnings

There are currently no watches in effect.